createdAt,value
2018-10-02T00:02:43.942Z,10.90
2018-10-02T00:07:47.762Z,9.93
2018-10-02T00:12:56.630Z,12.43
2018-10-02T00:18:00.125Z,7.27
2018-10-02T00:23:03.720Z,13.33
2018-10-02T00:28:07.418Z,12.27
2018-10-02T00:33:10.978Z,13.37
2018-10-02T00:38:14.654Z,9.93
2018-10-02T00:43:18.323Z,7.27
2018-10-02T00:48:21.933Z,11.87
2018-10-02T00:53:25.530Z,9.27
2018-10-02T00:58:29.204Z,6.40
2018-10-02T01:03:33.078Z,12.27
2018-10-02T01:08:37.124Z,7.80
2018-10-02T01:13:40.815Z,8.67
2018-10-02T01:18:44.402Z,10.97
2018-10-02T01:23:48.033Z,10.33
2018-10-02T01:28:51.558Z,16.47
2018-10-02T01:33:55.112Z,10.20
2018-10-02T01:38:58.666Z,17.00
2018-10-02T01:44:02.372Z,11.60
2018-10-02T01:49:06.046Z,13.27
2018-10-02T01:54:09.622Z,20.17
2018-10-02T01:59:13.358Z,9.53
2018-10-02T02:04:16.977Z,9.97
2018-10-02T02:09:22.865Z,12.97
2018-10-02T02:14:26.413Z,13.80
2018-10-02T02:19:30.014Z,13.97
2018-10-02T02:24:33.549Z,12.50
2018-10-02T02:29:37.448Z,10.13
2018-10-02T02:34:40.959Z,13.10
2018-10-02T02:39:44.465Z,7.40
2018-10-02T02:44:47.981Z,13.77
2018-10-02T02:49:56.748Z,10.27
2018-10-02T02:55:00.710Z,10.13
2018-10-02T03:00:04.561Z,12.07
2018-10-02T03:05:08.170Z,9.27
2018-10-02T03:10:11.844Z,9.30
2018-10-02T03:15:15.438Z,9.87
2018-10-02T03:20:18.985Z,15.03
2018-10-02T03:25:22.566Z,10.37
2018-10-02T03:30:30.886Z,9.57
2018-10-02T03:35:34.563Z,9.03
2018-10-02T03:40:38.302Z,13.63
2018-10-02T03:45:41.896Z,13.17
2018-10-02T03:50:45.482Z,17.03
2018-10-02T03:55:49.256Z,11.30
2018-10-02T04:00:52.794Z,14.07
2018-10-02T04:05:56.577Z,14.50
2018-10-02T04:11:00.138Z,15.17
2018-10-02T04:16:03.982Z,14.10
2018-10-02T04:21:07.706Z,13.90
2018-10-02T04:26:11.334Z,18.67
2018-10-02T04:31:14.945Z,9.37
2018-10-02T04:36:18.593Z,11.67
2018-10-02T04:41:22.198Z,12.80
2018-10-02T04:46:25.878Z,9.93
2018-10-02T04:51:29.484Z,6.27
2018-10-02T04:56:33.065Z,6.83
2018-10-02T05:01:36.652Z,10.07
2018-10-02T05:06:40.392Z,8.57
2018-10-02T05:11:44.376Z,7.10
2018-10-02T05:16:51.811Z,9.83
2018-10-02T05:21:55.523Z,12.03
2018-10-02T05:26:59.104Z,9.00
2018-10-02T05:32:02.697Z,6.00
2018-10-02T05:37:06.287Z,12.90
2018-10-02T05:42:10.207Z,7.43
2018-10-02T05:47:13.806Z,7.57
2018-10-02T05:52:17.385Z,12.50
2018-10-02T05:57:21.001Z,11.83
2018-10-02T06:02:27.309Z,14.80
2018-10-02T06:07:30.832Z,12.40
2018-10-02T06:12:34.447Z,11.07
2018-10-02T06:17:38.037Z,10.43
2018-10-02T06:22:41.603Z,8.73
2018-10-02T06:27:45.116Z,7.73
2018-10-02T06:32:48.880Z,13.00
2018-10-02T06:37:52.478Z,12.63
2018-10-02T06:42:56.152Z,9.23
2018-10-02T06:47:59.876Z,8.20
2018-10-02T06:53:03.489Z,9.60
2018-10-02T06:58:07.187Z,12.83
2018-10-02T07:03:10.813Z,12.80
2018-10-02T07:08:14.503Z,18.50
2018-10-02T07:13:18.070Z,15.13
2018-10-02T07:18:21.661Z,18.50
2018-10-02T07:23:25.264Z,14.20
2018-10-02T07:28:28.879Z,15.67
2018-10-02T07:33:32.556Z,17.47
2018-10-02T07:38:36.250Z,15.90
2018-10-02T07:43:39.807Z,18.47
2018-10-02T07:48:43.367Z,15.17
2018-10-02T07:53:47.023Z,13.10
2018-10-02T07:58:50.607Z,12.97
2018-10-02T08:03:54.238Z,13.20
2018-10-02T08:08:57.918Z,19.33
2018-10-02T08:14:01.572Z,18.60
2018-10-02T08:19:05.283Z,11.60
2018-10-02T08:24:11.322Z,15.43
2018-10-02T08:29:14.914Z,13.53
2018-10-02T08:34:18.396Z,17.27
2018-10-02T08:39:21.940Z,13.00
2018-10-02T08:44:25.564Z,13.47
2018-10-02T08:49:29.050Z,17.63
2018-10-02T08:54:32.595Z,10.20
2018-10-02T08:59:36.367Z,11.20
2018-10-02T09:04:39.926Z,11.93
2018-10-02T09:09:43.536Z,11.33
2018-10-02T09:14:47.150Z,6.77
2018-10-02T09:19:50.688Z,7.93
2018-10-02T09:24:54.229Z,8.07
2018-10-02T09:30:03.527Z,6.17
2018-10-02T09:35:12.359Z,8.50
2018-10-02T09:40:21.328Z,9.50
2018-10-02T09:45:25.090Z,14.93
2018-10-02T09:50:28.833Z,8.83
2018-10-02T09:55:32.399Z,7.23
2018-10-02T10:00:41.445Z,11.63
2018-10-02T10:05:45.185Z,10.67
2018-10-02T10:10:48.823Z,10.73
2018-10-02T10:15:52.462Z,10.53
2018-10-02T10:20:56.023Z,11.67
2018-10-02T10:25:59.712Z,11.33
2018-10-02T10:31:03.412Z,11.17
2018-10-02T10:36:07.036Z,8.50
2018-10-02T10:41:10.623Z,13.07
2018-10-02T10:46:14.212Z,8.20
2018-10-02T10:51:17.779Z,7.80
2018-10-02T10:56:21.454Z,9.47
2018-10-02T11:01:25.141Z,12.47
2018-10-02T11:06:28.680Z,12.37
2018-10-02T11:11:32.262Z,9.87
2018-10-02T11:16:35.869Z,10.63
2018-10-02T11:21:39.420Z,6.60
2018-10-02T11:26:43.004Z,7.97
2018-10-02T11:31:46.753Z,8.27
2018-10-02T11:36:50.319Z,5.97
2018-10-02T11:41:58.882Z,10.20
2018-10-02T11:47:07.706Z,9.00
2018-10-02T11:52:15.697Z,6.97
2018-10-02T11:57:23.440Z,6.73
2018-10-02T12:02:27.071Z,7.27
2018-10-02T12:07:30.842Z,6.90
2018-10-02T12:12:35.497Z,8.07
2018-10-02T12:17:39.148Z,7.03
2018-10-02T12:22:42.861Z,6.23
2018-10-02T12:27:46.465Z,5.77
2018-10-02T12:32:50.098Z,7.33
2018-10-02T12:37:53.815Z,7.03
2018-10-02T12:42:57.417Z,7.10
2018-10-02T12:48:00.958Z,7.83
2018-10-02T12:53:10.072Z,8.60
2018-10-02T12:58:14.645Z,8.80
2018-10-02T13:03:18.271Z,10.63
2018-10-02T13:08:29.632Z,11.93
2018-10-02T13:13:33.239Z,11.47
2018-10-02T13:18:36.922Z,11.80
2018-10-02T13:23:40.574Z,13.73
2018-10-02T13:28:44.332Z,13.77
2018-10-02T13:33:47.977Z,14.90
2018-10-02T13:38:51.637Z,17.50
2018-10-02T13:43:55.239Z,16.50
2018-10-02T13:48:58.871Z,15.43
2018-10-02T13:54:02.396Z,18.33
2018-10-02T13:59:06.043Z,20.00
2018-10-02T14:04:09.708Z,21.20
2018-10-02T14:09:13.485Z,24.30
2018-10-02T14:14:17.509Z,25.30
2018-10-02T14:19:21.142Z,25.33
2018-10-02T14:24:27.633Z,28.53
2018-10-02T14:29:31.685Z,28.53
2018-10-02T14:34:38.156Z,31.50
2018-10-02T14:39:42.227Z,31.90
2018-10-02T14:44:45.829Z,34.07
2018-10-02T14:49:49.431Z,33.50
2018-10-02T14:54:53.171Z,33.07
2018-10-02T14:59:56.783Z,37.53
2018-10-02T15:05:00.664Z,39.43
2018-10-02T15:10:04.378Z,44.17
2018-10-02T15:15:08.405Z,41.57
2018-10-02T15:20:12.064Z,38.10
2018-10-02T15:25:15.945Z,39.00
2018-10-02T15:30:26.419Z,44.10
2018-10-02T15:35:29.982Z,43.20
2018-10-02T15:40:33.584Z,39.93
2018-10-02T15:45:37.788Z,37.10
2018-10-02T15:50:41.535Z,37.70
2018-10-02T15:55:45.405Z,39.33
2018-10-02T16:00:49.006Z,37.27
2018-10-02T16:05:52.597Z,33.77
2018-10-02T16:10:56.166Z,32.07
2018-10-02T16:15:59.715Z,28.97
2018-10-02T16:21:03.623Z,30.00
2018-10-02T16:26:07.610Z,30.70
2018-10-02T16:31:11.217Z,25.47
2018-10-02T16:36:14.874Z,24.80
2018-10-02T16:41:18.426Z,24.60
2018-10-02T16:46:21.978Z,22.60
2018-10-02T16:51:25.677Z,24.83
2018-10-02T16:56:29.336Z,25.37
2018-10-02T17:01:32.966Z,22.53
2018-10-02T17:06:36.576Z,22.17
2018-10-02T17:11:40.243Z,24.23
2018-10-02T17:16:43.861Z,24.43
2018-10-02T17:21:47.430Z,18.30
2018-10-02T17:26:50.997Z,16.23
2018-10-02T17:31:55.471Z,15.43
2018-10-02T17:36:59.117Z,17.80
2018-10-02T17:42:02.759Z,15.33
2018-10-02T17:47:06.503Z,16.63
2018-10-02T17:52:10.427Z,13.90
2018-10-02T17:57:17.181Z,10.33
2018-10-02T18:02:20.835Z,13.10
2018-10-02T18:07:27.374Z,9.60
2018-10-02T18:12:30.938Z,16.37
2018-10-02T18:17:35.419Z,8.37
2018-10-02T18:22:39.129Z,10.63
2018-10-02T18:27:42.727Z,6.50
2018-10-02T18:32:46.466Z,5.87
2018-10-02T18:37:50.185Z,8.93
2018-10-02T18:42:54.113Z,8.83
2018-10-02T18:47:57.790Z,13.70
2018-10-02T18:53:01.399Z,6.43
2018-10-02T18:58:05.006Z,7.67
2018-10-02T19:03:08.656Z,11.03
2018-10-02T19:08:12.875Z,11.50
2018-10-02T19:13:20.429Z,10.50
2018-10-02T19:18:24.000Z,7.97
2018-10-02T19:23:28.994Z,7.27
2018-10-02T19:28:33.015Z,6.47
2018-10-02T19:33:36.596Z,7.53
2018-10-02T19:38:47.956Z,7.50
2018-10-02T19:43:52.449Z,11.20
2018-10-02T19:48:56.161Z,9.13
2018-10-02T19:54:00.798Z,6.90
2018-10-02T19:59:04.938Z,14.17
2018-10-02T20:04:08.652Z,16.60
2018-10-02T20:09:12.762Z,12.83
2018-10-02T20:14:16.359Z,6.23
2018-10-02T20:19:19.845Z,6.70
2018-10-02T20:24:23.383Z,10.70
2018-10-02T20:29:27.058Z,6.93
2018-10-02T20:34:30.573Z,7.70
2018-10-02T20:39:34.104Z,15.30
2018-10-02T20:44:37.759Z,10.80
2018-10-02T20:49:41.267Z,8.60
2018-10-02T20:54:44.886Z,8.77
2018-10-02T20:59:48.509Z,17.70
2018-10-02T21:04:53.893Z,8.63
2018-10-02T21:09:57.642Z,10.63
2018-10-02T21:15:01.238Z,10.73
2018-10-02T21:20:04.971Z,10.77
2018-10-02T21:25:08.806Z,11.57
2018-10-02T21:30:17.307Z,12.43
2018-10-02T21:35:20.920Z,9.97
2018-10-02T21:40:24.749Z,15.57
2018-10-02T21:45:28.317Z,11.73
2018-10-02T21:50:31.952Z,13.03
2018-10-02T21:55:35.532Z,13.50
2018-10-02T22:00:45.405Z,10.40
2018-10-02T22:05:49.002Z,12.17
2018-10-02T22:10:52.534Z,12.20
2018-10-02T22:15:56.420Z,14.43
2018-10-02T22:21:00.175Z,11.27
2018-10-02T22:26:04.112Z,8.13
2018-10-02T22:31:08.053Z,13.43
2018-10-02T22:36:12.179Z,19.27
2018-10-02T22:41:15.782Z,17.13
2018-10-02T22:46:19.443Z,12.97
2018-10-02T22:51:23.112Z,12.67
2018-10-02T22:56:26.733Z,14.13
2018-10-02T23:01:30.483Z,12.60
2018-10-02T23:06:34.013Z,20.90
2018-10-02T23:11:37.559Z,8.53
2018-10-02T23:16:41.141Z,10.07
2018-10-02T23:21:44.757Z,13.80
2018-10-02T23:26:48.375Z,21.67
2018-10-02T23:31:51.985Z,14.43
2018-10-02T23:36:55.645Z,20.87
2018-10-02T23:41:59.251Z,20.90
2018-10-02T23:47:03.142Z,13.20
2018-10-02T23:52:06.958Z,14.63
2018-10-02T23:57:10.612Z,14.47
